createdAt,value
2022-12-18T00:01:15.115Z,103157.44
2022-12-18T00:03:42.036Z,103152.28
2022-12-18T00:06:09.731Z,103141.09
2022-12-18T00:08:36.264Z,103137.50
2022-12-18T00:11:07.391Z,103131.44
2022-12-18T00:13:34.551Z,103122.03
2022-12-18T00:16:06.383Z,103129.81
2022-12-18T00:18:33.744Z,103126.47
2022-12-18T00:21:02.065Z,103120.59
2022-12-18T00:23:29.523Z,103130.97
2022-12-18T00:25:56.053Z,103130.97
2022-12-18T00:28:22.552Z,103139.00
2022-12-18T00:30:52.294Z,103147.78
2022-12-18T00:33:19.171Z,103141.72
2022-12-18T00:35:45.628Z,103131.28
2022-12-18T00:38:12.076Z,103133.00
2022-12-18T00:40:38.524Z,103134.81
2022-12-18T00:43:04.967Z,103133.97
2022-12-18T00:45:32.766Z,103127.16
2022-12-18T00:47:59.326Z,103125.38
2022-12-18T00:50:26.570Z,103122.84
2022-12-18T00:52:53.059Z,103129.88
2022-12-18T00:55:19.967Z,103125.66
2022-12-18T00:57:46.475Z,103136.75
2022-12-18T01:00:14.815Z,103135.22
2022-12-18T01:02:42.092Z,103135.44
2022-12-18T01:05:13.884Z,103123.34
2022-12-18T01:07:40.718Z,103125.81
2022-12-18T01:10:08.525Z,103113.78
2022-12-18T01:12:35.187Z,103115.50
2022-12-18T01:15:01.864Z,103123.28
2022-12-18T01:17:28.454Z,103120.72
2022-12-18T01:19:55.040Z,103124.03
2022-12-18T01:22:21.667Z,103117.19
2022-12-18T01:24:48.079Z,103120.53
2022-12-18T01:27:14.804Z,103128.47
2022-12-18T01:29:41.306Z,103133.75
2022-12-18T01:32:07.815Z,103132.84
2022-12-18T01:34:35.332Z,103135.31
2022-12-18T01:37:04.335Z,103138.00
2022-12-18T01:39:30.980Z,103140.75
2022-12-18T01:42:03.537Z,103136.75
2022-12-18T01:44:59.375Z,103142.00
2022-12-18T01:47:44.746Z,103154.19
2022-12-18T01:50:15.056Z,103156.81
2022-12-18T01:52:44.726Z,103138.78
2022-12-18T01:55:13.326Z,103146.69
2022-12-18T01:57:41.322Z,103145.94
2022-12-18T02:00:17.236Z,103140.84
2022-12-18T02:02:45.957Z,103156.41
2022-12-18T02:05:16.419Z,103152.19
2022-12-18T02:08:16.174Z,103156.56
2022-12-18T02:10:57.994Z,103149.81
2022-12-18T02:13:44.832Z,103149.91
2022-12-18T02:16:16.299Z,103149.22
2022-12-18T02:18:48.969Z,103152.84
2022-12-18T02:21:18.218Z,103158.13
2022-12-18T02:24:01.335Z,103157.34
2022-12-18T02:26:45.882Z,103154.84
2022-12-18T02:29:36.258Z,103156.69
2022-12-18T02:32:07.036Z,103165.41
2022-12-18T02:34:39.288Z,103168.91
2022-12-18T02:37:08.973Z,103158.53
2022-12-18T02:39:39.179Z,103143.19
2022-12-18T02:42:08.953Z,103147.59
2022-12-18T02:44:43.604Z,103145.09
2022-12-18T02:47:13.504Z,103136.50
2022-12-18T02:50:08.922Z,103128.78
2022-12-18T02:52:38.213Z,103143.47
2022-12-18T02:55:25.896Z,103139.22
2022-12-18T02:58:15.414Z,103141.81
2022-12-18T03:01:10.823Z,103139.34
2022-12-18T03:03:45.996Z,103133.41
2022-12-18T03:06:26.336Z,103129.13
2022-12-18T03:08:59.129Z,103123.13
2022-12-18T03:11:47.954Z,103120.59
2022-12-18T03:14:18.400Z,103108.59
2022-12-18T03:16:47.048Z,103115.56
2022-12-18T03:19:17.928Z,103125.16
2022-12-18T03:21:50.513Z,103119.22
2022-12-18T03:24:20.021Z,103120.09
2022-12-18T03:26:50.223Z,103109.09
2022-12-18T03:29:23.807Z,103103.97
2022-12-18T03:31:57.961Z,103099.75
2022-12-18T03:34:31.067Z,103104.94
2022-12-18T03:36:59.014Z,103093.06
2022-12-18T03:39:26.367Z,103099.09
2022-12-18T03:41:56.384Z,103096.59
2022-12-18T03:44:50.327Z,103091.34
2022-12-18T03:47:25.874Z,103094.81
2022-12-18T03:50:09.621Z,103078.53
2022-12-18T03:52:54.998Z,103088.06
2022-12-18T03:55:22.879Z,103083.00
2022-12-18T03:57:56.954Z,103088.06
2022-12-18T04:00:23.485Z,103082.19
2022-12-18T04:02:56.247Z,103078.78
2022-12-18T04:05:25.307Z,103074.50
2022-12-18T04:07:53.499Z,103074.44
2022-12-18T04:10:20.000Z,103074.44
2022-12-18T04:12:46.553Z,103066.72
2022-12-18T04:15:14.466Z,103068.47
2022-12-18T04:17:48.609Z,103060.78
2022-12-18T04:20:15.377Z,103057.31
2022-12-18T04:22:42.627Z,103047.84
2022-12-18T04:25:09.319Z,103055.59
2022-12-18T04:27:35.829Z,103054.78
2022-12-18T04:30:02.700Z,103052.25
2022-12-18T04:32:29.152Z,103053.03
2022-12-18T04:34:55.852Z,103048.78
2022-12-18T04:37:22.288Z,103051.38
2022-12-18T04:39:48.737Z,103052.19
2022-12-18T04:42:15.212Z,103046.19
2022-12-18T04:44:41.670Z,103054.78
2022-12-18T04:47:08.636Z,103065.06
2022-12-18T04:49:35.064Z,103081.38
2022-12-18T04:52:01.515Z,103079.66
2022-12-18T04:54:27.990Z,103083.91
2022-12-18T04:56:54.445Z,103083.88
2022-12-18T04:59:21.706Z,103089.94
2022-12-18T05:01:48.351Z,103082.19
2022-12-18T05:04:14.958Z,103094.13
2022-12-18T05:06:41.381Z,103095.94
2022-12-18T05:09:07.831Z,103107.06
2022-12-18T05:11:34.289Z,103103.66
2022-12-18T05:14:00.741Z,103103.66
2022-12-18T05:16:27.223Z,103100.25
2022-12-18T05:18:53.695Z,103110.53
2022-12-18T05:21:20.177Z,103103.75
2022-12-18T05:23:46.635Z,103107.19
2022-12-18T05:26:17.409Z,103115.84
2022-12-18T05:28:44.802Z,103129.66
2022-12-18T05:31:11.561Z,103123.72
2022-12-18T05:33:38.537Z,103127.19
2022-12-18T05:36:07.740Z,103130.69
2022-12-18T05:38:36.212Z,103123.84
2022-12-18T05:41:04.577Z,103127.34
2022-12-18T05:43:31.356Z,103109.25
2022-12-18T05:45:58.483Z,103119.53
2022-12-18T05:48:24.983Z,103103.19
2022-12-18T05:50:52.061Z,103104.06
2022-12-18T05:53:20.601Z,103098.13
2022-12-18T05:55:47.949Z,103098.91
2022-12-18T05:58:15.406Z,103098.06
2022-12-18T06:00:44.437Z,103092.94
2022-12-18T06:03:12.757Z,103082.66
2022-12-18T06:05:41.848Z,103084.34
2022-12-18T06:08:08.785Z,103086.06
2022-12-18T06:10:35.402Z,103088.66
2022-12-18T06:13:02.212Z,103083.53
2022-12-18T06:15:28.689Z,103074.97
2022-12-18T06:17:55.221Z,103073.25
2022-12-18T06:20:21.720Z,103075.81
2022-12-18T06:22:48.173Z,103069.00
2022-12-18T06:25:14.670Z,103071.56
2022-12-18T06:27:41.301Z,103064.75
2022-12-18T06:30:09.537Z,103065.63
2022-12-18T06:32:35.993Z,103062.28
2022-12-18T06:35:02.437Z,103056.22
2022-12-18T06:37:29.264Z,103051.06
2022-12-18T06:39:57.468Z,103051.06
2022-12-18T06:42:25.089Z,103063.16
2022-12-18T06:44:51.616Z,103059.81
2022-12-18T06:47:18.096Z,103040.94
2022-12-18T06:49:44.565Z,103044.41
2022-12-18T06:52:11.011Z,103036.72
2022-12-18T06:54:37.602Z,103040.16
2022-12-18T06:57:04.131Z,103042.75
2022-12-18T06:59:30.657Z,103035.00
2022-12-18T07:01:57.228Z,103022.19
2022-12-18T07:04:28.916Z,103020.47
2022-12-18T07:06:55.358Z,103021.41
2022-12-18T07:09:22.048Z,103019.69
2022-12-18T07:11:48.508Z,103022.28
2022-12-18T07:14:14.980Z,103029.16
2022-12-18T07:16:41.874Z,103003.41
2022-12-18T07:19:08.379Z,102999.13
2022-12-18T07:21:34.872Z,103005.19
2022-12-18T07:24:01.358Z,103006.06
2022-12-18T07:26:27.927Z,103003.38
2022-12-18T07:28:58.612Z,103010.31
2022-12-18T07:31:26.148Z,103008.59
2022-12-18T07:33:53.083Z,102991.38
2022-12-18T07:36:20.372Z,103000.78
2022-12-18T07:38:50.827Z,102998.22
2022-12-18T07:41:17.439Z,102994.78
2022-12-18T07:43:44.423Z,102991.38
2022-12-18T07:46:13.583Z,102987.03
2022-12-18T07:48:41.307Z,102981.03
2022-12-18T07:51:08.337Z,102970.66
2022-12-18T07:53:37.216Z,102973.16
2022-12-18T07:58:53.477Z,102961.91
2022-12-18T08:01:20.073Z,102959.31
2022-12-18T08:03:47.838Z,102959.38
2022-12-18T08:06:14.961Z,102955.03
2022-12-18T08:08:43.099Z,102952.38
2022-12-18T08:11:09.600Z,102950.47
2022-12-18T08:13:36.328Z,102946.97
2022-12-18T08:16:06.338Z,102959.81
2022-12-18T08:18:37.745Z,102955.47
2022-12-18T08:21:11.383Z,102954.53
2022-12-18T08:23:42.580Z,102941.59
2022-12-18T08:26:10.111Z,102951.81
2022-12-18T08:28:36.779Z,102968.00
2022-12-18T08:31:03.322Z,102980.94
2022-12-18T08:33:29.812Z,102986.88
2022-12-18T08:35:56.256Z,102991.09
2022-12-18T08:38:23.811Z,102987.56
2022-12-18T08:40:50.261Z,102972.03
2022-12-18T08:43:51.826Z,102973.81
2022-12-18T08:46:19.640Z,102953.00
2022-12-18T08:48:46.526Z,102959.72
2022-12-18T08:51:13.537Z,102964.03
2022-12-18T08:53:40.362Z,102960.56
2022-12-18T08:56:07.644Z,102956.06
2022-12-18T08:58:34.193Z,102949.88
2022-12-18T09:01:05.803Z,102962.59
2022-12-18T09:03:32.349Z,102986.59
2022-12-18T09:05:59.019Z,102977.09
2022-12-18T09:08:25.520Z,102981.19
2022-12-18T09:10:52.644Z,102958.66
2022-12-18T09:13:19.847Z,102958.41
2022-12-18T09:15:48.918Z,102957.25
2022-12-18T09:18:17.145Z,102962.19
2022-12-18T09:20:44.416Z,102961.06
2022-12-18T09:23:11.325Z,102952.25
2022-12-18T09:25:38.847Z,102962.31
2022-12-18T09:28:12.063Z,102956.91
2022-12-18T09:30:40.173Z,102956.78
2022-12-18T09:33:06.679Z,102961.66
2022-12-18T09:35:36.796Z,102951.06
2022-12-18T09:38:03.328Z,102937.84
2022-12-18T09:40:35.927Z,102941.03
2022-12-18T09:43:05.718Z,102938.13
2022-12-18T09:45:43.703Z,102922.41
2022-12-18T09:48:31.832Z,102932.44
2022-12-18T09:51:05.125Z,102921.84
2022-12-18T09:53:36.445Z,102910.38
2022-12-18T09:56:05.249Z,102906.59
2022-12-18T09:58:39.763Z,102899.34
2022-12-18T10:01:19.413Z,102916.44
2022-12-18T10:03:46.002Z,102910.06
2022-12-18T10:06:24.976Z,102905.53
2022-12-18T10:09:11.372Z,102902.66
2022-12-18T10:11:48.220Z,102901.56
2022-12-18T10:14:40.990Z,102899.44
2022-12-18T10:17:27.849Z,102887.75
2022-12-18T10:19:59.672Z,102890.84
2022-12-18T10:22:38.199Z,102886.31
2022-12-18T10:25:28.404Z,102892.09
2022-12-18T10:28:01.250Z,102898.09
2022-12-18T10:30:27.993Z,102896.09
2022-12-18T10:32:57.060Z,102896.00
2022-12-18T10:35:26.753Z,102866.47
2022-12-18T10:38:14.954Z,102874.63
2022-12-18T10:41:03.401Z,102875.28
2022-12-18T10:43:31.291Z,102883.91
2022-12-18T10:46:10.092Z,102873.97
2022-12-18T10:48:48.658Z,102868.50
2022-12-18T10:51:31.625Z,102857.97
2022-12-18T10:54:18.587Z,102854.22
2022-12-18T10:56:45.861Z,102850.50
2022-12-18T10:59:17.864Z,102848.56
2022-12-18T11:01:53.464Z,102839.59
2022-12-18T11:04:32.597Z,102840.28
2022-12-18T11:07:00.255Z,102837.47
2022-12-18T11:09:29.746Z,102822.75
2022-12-18T11:12:07.054Z,102816.47
2022-12-18T11:14:46.868Z,102818.69
2022-12-18T11:17:26.687Z,102822.88
2022-12-18T11:20:27.636Z,102820.94
2022-12-18T11:23:03.739Z,102811.09
2022-12-18T11:25:32.480Z,102799.50
2022-12-18T11:28:03.659Z,102800.06
2022-12-18T11:30:35.214Z,102795.66
2022-12-18T11:33:06.632Z,102794.47
2022-12-18T11:35:43.101Z,102803.88
2022-12-18T11:38:35.543Z,102799.56
2022-12-18T11:41:07.348Z,102799.31
2022-12-18T11:43:53.214Z,102801.66
2022-12-18T11:46:48.158Z,102801.38
2022-12-18T11:49:14.616Z,102792.53
2022-12-18T11:51:50.235Z,102790.56
2022-12-18T11:54:17.344Z,102787.00
2022-12-18T11:56:59.550Z,102779.84
2022-12-18T11:59:37.837Z,102771.91
2022-12-18T12:02:13.171Z,102766.63
2022-12-18T12:04:42.529Z,102764.03
2022-12-18T12:07:41.148Z,102756.13
2022-12-18T12:10:25.888Z,102737.72
2022-12-18T12:13:10.146Z,102734.97
2022-12-18T12:15:57.135Z,102729.75
2022-12-18T12:18:55.710Z,102739.13
2022-12-18T12:21:29.114Z,102727.72
2022-12-18T12:24:25.652Z,102725.75
2022-12-18T12:27:21.587Z,102724.75
2022-12-18T12:30:17.534Z,102718.41
2022-12-18T12:33:03.632Z,102717.28
2022-12-18T12:36:15.623Z,102710.34
2022-12-18T12:38:51.879Z,102708.66
2022-12-18T12:41:41.709Z,102702.53
2022-12-18T12:44:14.186Z,102705.13
2022-12-18T12:46:42.783Z,102693.88
2022-12-18T12:49:40.413Z,102689.34
2022-12-18T12:52:13.487Z,102676.13
2022-12-18T12:54:40.814Z,102680.38
2022-12-18T12:57:16.614Z,102678.59
2022-12-18T13:00:22.989Z,102672.25
2022-12-18T13:02:55.329Z,102679.84
2022-12-18T13:05:39.551Z,102682.41
2022-12-18T13:08:09.972Z,102667.53
2022-12-18T13:10:40.009Z,102669.34
2022-12-18T13:13:10.454Z,102665.19
2022-12-18T13:15:47.699Z,102670.34
2022-12-18T13:18:19.361Z,102679.03
2022-12-18T13:20:59.756Z,102671.97
2022-12-18T13:23:34.627Z,102676.19
2022-12-18T13:26:27.956Z,102672.50
2022-12-18T13:28:55.991Z,102669.84
2022-12-18T13:31:40.714Z,102662.91
2022-12-18T13:34:26.126Z,102652.53
2022-12-18T13:36:55.454Z,102650.06
2022-12-18T13:39:34.753Z,102652.53
2022-12-18T13:42:08.565Z,102645.00
2022-12-18T13:44:40.945Z,102639.78
2022-12-18T13:47:34.413Z,102641.31
2022-12-18T13:50:03.156Z,102630.09
2022-12-18T13:52:37.521Z,102620.28
2022-12-18T13:55:16.025Z,102610.91
2022-12-18T13:57:42.545Z,102612.59
2022-12-18T14:00:20.894Z,102621.34
2022-12-18T14:02:47.677Z,102610.00
2022-12-18T14:05:26.783Z,102616.84
2022-12-18T14:07:55.562Z,102597.84
2022-12-18T14:10:48.627Z,102602.00
2022-12-18T14:13:15.055Z,102600.31
2022-12-18T14:15:45.303Z,102597.84
2022-12-18T14:18:17.905Z,102589.09
2022-12-18T14:20:49.216Z,102574.50
2022-12-18T14:23:37.637Z,102579.66
2022-12-18T14:26:23.299Z,102580.34
2022-12-18T14:28:50.184Z,102567.38
2022-12-18T14:31:25.849Z,102573.28
2022-12-18T14:33:53.604Z,102557.63
2022-12-18T14:36:24.163Z,102569.75
2022-12-18T14:38:56.540Z,102567.91
2022-12-18T14:41:24.539Z,102558.31
2022-12-18T14:43:52.852Z,102557.31
2022-12-18T14:46:40.226Z,102555.72
2022-12-18T14:49:24.892Z,102553.00
2022-12-18T14:51:59.962Z,102546.97
2022-12-18T14:54:28.503Z,102548.81
2022-12-18T14:57:03.997Z,102544.41
2022-12-18T14:59:31.416Z,102545.47
2022-12-18T15:02:21.314Z,102547.94
2022-12-18T15:04:47.999Z,102542.03
2022-12-18T15:07:14.734Z,102550.69
2022-12-18T15:09:43.828Z,102539.44
2022-12-18T15:12:41.075Z,102542.88
2022-12-18T15:15:45.812Z,102540.25
2022-12-18T15:18:17.757Z,102523.97
2022-12-18T15:21:09.215Z,102524.84
2022-12-18T15:23:49.120Z,102526.59
2022-12-18T15:26:17.949Z,102537.66
2022-12-18T15:28:56.408Z,102541.19
2022-12-18T15:31:28.771Z,102514.31
2022-12-18T15:33:55.199Z,102530.75
2022-12-18T15:36:26.139Z,102529.19
2022-12-18T15:38:55.487Z,102524.91
2022-12-18T15:41:26.345Z,102535.19
2022-12-18T15:43:53.886Z,102538.56
2022-12-18T15:46:22.958Z,102527.50
2022-12-18T15:48:50.409Z,102526.59
2022-12-18T15:51:34.171Z,102521.38
2022-12-18T15:54:04.669Z,102508.41
2022-12-18T15:56:49.934Z,102510.16
2022-12-18T15:59:21.301Z,102494.59
2022-12-18T16:01:49.946Z,102503.19
2022-12-18T16:04:20.980Z,102496.19
2022-12-18T16:09:34.408Z,102498.78
2022-12-18T16:12:01.043Z,102484.97
2022-12-18T16:14:32.342Z,102478.94
2022-12-18T16:17:01.586Z,102471.09
2022-12-18T16:19:28.875Z,102470.00
2022-12-18T16:21:57.392Z,102460.34
2022-12-18T16:24:30.108Z,102462.03
2022-12-18T16:26:59.805Z,102464.69
2022-12-18T16:29:30.310Z,102456.81
2022-12-18T16:32:01.428Z,102451.59
2022-12-18T16:34:35.930Z,102451.59
2022-12-18T16:37:06.176Z,102436.91
2022-12-18T16:39:36.749Z,102437.75
2022-12-18T16:42:17.899Z,102424.53
2022-12-18T16:44:44.923Z,102423.69
2022-12-18T16:47:11.801Z,102422.00
2022-12-18T16:49:41.789Z,102427.91
2022-12-18T16:52:09.169Z,102426.28
2022-12-18T16:54:36.742Z,102436.59
2022-12-18T16:57:05.400Z,102415.84
2022-12-18T16:59:32.195Z,102425.22
2022-12-18T17:01:58.807Z,102422.69
2022-12-18T17:04:25.467Z,102414.94
2022-12-18T17:06:52.074Z,102417.38
2022-12-18T17:09:23.754Z,102417.47
2022-12-18T17:11:50.321Z,102421.69
2022-12-18T17:14:20.378Z,102427.06
2022-12-18T17:16:49.145Z,102427.81
2022-12-18T17:19:17.885Z,102427.00
2022-12-18T17:21:47.675Z,102416.47
2022-12-18T17:24:14.408Z,102424.44
2022-12-18T17:26:40.936Z,102413.09
2022-12-18T17:29:07.551Z,102420.75
2022-12-18T17:31:34.852Z,102416.31
2022-12-18T17:34:03.083Z,102405.94
2022-12-18T17:36:32.224Z,102410.22
2022-12-18T17:39:01.473Z,102423.28
2022-12-18T17:41:29.565Z,102423.22
2022-12-18T17:44:00.637Z,102421.53
2022-12-18T17:46:29.291Z,102409.38
2022-12-18T17:48:57.265Z,102413.59
2022-12-18T17:51:23.724Z,102419.84
2022-12-18T17:53:50.300Z,102416.41
2022-12-18T17:56:20.317Z,102411.16
2022-12-18T17:58:48.017Z,102412.59
2022-12-18T18:01:16.974Z,102413.53
2022-12-18T18:03:44.820Z,102410.91
2022-12-18T18:06:11.946Z,102407.53
2022-12-18T18:08:38.463Z,102415.22
2022-12-18T18:11:30.984Z,102422.19
2022-12-18T18:14:00.691Z,102420.44
2022-12-18T18:16:35.790Z,102429.78
2022-12-18T18:19:07.331Z,102419.41
2022-12-18T18:21:34.555Z,102414.13
2022-12-18T18:24:03.253Z,102418.31
2022-12-18T18:26:34.118Z,102424.25
2022-12-18T18:29:03.003Z,102415.56
2022-12-18T18:31:34.748Z,102413.81
2022-12-18T18:34:08.664Z,102413.81
2022-12-18T18:36:35.180Z,102407.56
2022-12-18T18:39:02.211Z,102403.09
2022-12-18T18:41:30.422Z,102406.56
2022-12-18T18:43:58.319Z,102404.88
2022-12-18T18:46:25.521Z,102402.25
2022-12-18T18:48:52.106Z,102410.88
2022-12-18T18:51:21.205Z,102396.88
2022-12-18T18:53:49.768Z,102397.47
2022-12-18T18:56:56.457Z,102393.94
2022-12-18T18:59:04.682Z,102398.06
2022-12-18T19:01:31.216Z,102394.53
2022-12-18T19:03:57.816Z,102395.28
2022-12-18T19:06:27.378Z,102387.53
2022-12-18T19:08:55.986Z,102382.28
2022-12-18T19:11:42.091Z,102379.34
2022-12-18T19:14:10.377Z,102383.59
2022-12-18T19:16:37.187Z,102389.56
2022-12-18T19:19:04.437Z,102390.38
2022-12-18T19:21:34.312Z,102386.78
2022-12-18T19:24:02.787Z,102384.16
2022-12-18T19:26:29.873Z,102389.06
2022-12-18T19:29:07.766Z,102375.41
2022-12-18T19:31:36.973Z,102379.53
2022-12-18T19:34:07.957Z,102377.84
2022-12-18T19:36:36.325Z,102390.75
2022-12-18T19:39:12.478Z,102388.19
2022-12-18T19:41:39.935Z,102394.19
2022-12-18T19:44:08.172Z,102391.56
2022-12-18T19:46:35.491Z,102394.19
2022-12-18T19:49:02.036Z,102386.34
2022-12-18T19:51:30.559Z,102395.81
2022-12-18T19:54:00.534Z,102384.50
2022-12-18T19:56:30.846Z,102392.44
2022-12-18T19:58:57.741Z,102382.03
2022-12-18T20:01:26.513Z,102383.13
2022-12-18T20:03:53.715Z,102377.09
2022-12-18T20:06:27.469Z,102376.50
2022-12-18T20:08:57.992Z,102378.34
2022-12-18T20:11:28.309Z,102375.91
2022-12-18T20:13:54.873Z,102379.28
2022-12-18T20:16:21.432Z,102382.88
2022-12-18T20:18:49.205Z,102388.22
2022-12-18T20:21:16.144Z,102387.44
2022-12-18T20:23:43.170Z,102380.59
2022-12-18T20:26:10.181Z,102377.16
2022-12-18T20:28:36.762Z,102392.84
2022-12-18T20:31:08.321Z,102391.16
2022-12-18T20:33:37.150Z,102382.41
2022-12-18T20:36:06.391Z,102384.16
2022-12-18T20:38:35.608Z,102384.16
2022-12-18T20:41:07.523Z,102370.31
2022-12-18T20:43:34.196Z,102376.41
2022-12-18T20:46:09.119Z,102371.09
2022-12-18T20:48:36.045Z,102368.47
2022-12-18T20:51:08.582Z,102363.34
2022-12-18T20:53:35.989Z,102353.06
2022-12-18T20:56:08.774Z,102360.72
2022-12-18T20:58:36.102Z,102359.81
2022-12-18T21:01:04.741Z,102357.44
2022-12-18T21:03:31.314Z,102347.06
2022-12-18T21:05:57.874Z,102342.69
2022-12-18T21:08:24.328Z,102328.69
2022-12-18T21:10:50.825Z,102328.53
2022-12-18T21:13:17.315Z,102313.88
2022-12-18T21:15:45.178Z,102324.06
2022-12-18T21:18:11.741Z,102319.75
2022-12-18T21:20:38.254Z,102318.00
2022-12-18T21:23:16.349Z,102308.47
2022-12-18T21:25:43.638Z,102301.56
2022-12-18T21:28:10.079Z,102303.16
2022-12-18T21:30:36.789Z,102299.72
2022-12-18T21:33:03.500Z,102292.63
2022-12-18T21:35:30.986Z,102297.69
2022-12-18T21:37:58.633Z,102297.59
2022-12-18T21:40:25.212Z,102288.06
2022-12-18T21:43:10.491Z,102299.22
2022-12-18T21:45:41.503Z,102300.13
2022-12-18T21:48:08.060Z,102293.97
2022-12-18T21:50:34.540Z,102298.19
2022-12-18T21:53:00.966Z,102285.22
2022-12-18T21:55:27.375Z,102291.94
2022-12-18T21:57:54.194Z,102274.59
2022-12-18T22:00:20.772Z,102260.41
2022-12-18T22:02:59.934Z,102262.19
2022-12-18T22:05:34.845Z,102248.28
2022-12-18T22:08:01.722Z,102258.75
2022-12-18T22:10:28.631Z,102260.50
2022-12-18T22:12:55.203Z,102252.66
2022-12-18T22:15:22.056Z,102248.09
2022-12-18T22:17:50.381Z,102238.59
2022-12-18T22:20:17.813Z,102236.63
2022-12-18T22:22:46.909Z,102225.34
2022-12-18T22:25:13.515Z,102228.72
2022-12-18T22:27:39.968Z,102217.31
2022-12-18T22:30:07.131Z,102196.59
2022-12-18T22:32:35.555Z,102194.63
2022-12-18T22:35:09.192Z,102193.63
2022-12-18T22:37:37.214Z,102181.50
2022-12-18T22:40:06.085Z,102169.25
2022-12-18T22:42:34.306Z,102166.38
2022-12-18T22:45:00.793Z,102156.00
2022-12-18T22:47:30.016Z,102156.69
2022-12-18T22:49:57.948Z,102160.22
2022-12-18T22:52:25.052Z,102147.97
2022-12-18T22:54:53.394Z,102153.13
2022-12-18T22:57:20.793Z,102147.91
2022-12-18T22:59:47.273Z,102158.34
2022-12-18T23:02:13.831Z,102141.94
2022-12-18T23:04:40.348Z,102156.38
2022-12-18T23:07:06.954Z,102149.41
2022-12-18T23:09:33.838Z,102123.44
2022-12-18T23:12:00.708Z,102125.75
2022-12-18T23:14:28.395Z,102118.69
2022-12-18T23:16:55.053Z,102107.22
2022-12-18T23:19:23.516Z,102097.69
2022-12-18T23:21:50.849Z,102111.41
2022-12-18T23:24:17.356Z,102108.03
2022-12-18T23:26:43.779Z,102117.47
2022-12-18T23:29:10.335Z,102126.91
2022-12-18T23:31:38.896Z,102113.94
2022-12-18T23:34:06.310Z,102114.75
2022-12-18T23:36:43.523Z,102113.75
2022-12-18T23:39:15.629Z,102092.81
2022-12-18T23:41:55.963Z,102074.72
2022-12-18T23:44:22.429Z,102066.13
2022-12-18T23:46:48.915Z,102067.88
2022-12-18T23:49:15.439Z,102064.34
2022-12-18T23:51:41.884Z,102059.97
2022-12-18T23:54:10.167Z,102063.50
2022-12-18T23:56:36.604Z,102089.28
2022-12-18T23:59:03.249Z,102071.06
